sensor_id;sensor_type;location;lat;lon;timestamp;temperature;humidity
9497;DHT22;4786;51.270;4.456;2022-09-28T00:00:15;10.60;99.90
9497;DHT22;4786;51.270;4.456;2022-09-28T00:02:41;10.60;99.90
9497;DHT22;4786;51.270;4.456;2022-09-28T00:05:07;10.50;99.90
9497;DHT22;4786;51.270;4.456;2022-09-28T00:07:33;10.50;99.90
9497;DHT22;4786;51.270;4.456;2022-09-28T00:09:59;10.40;99.90
9497;DHT22;4786;51.270;4.456;2022-09-28T00:12:25;10.40;99.90
9497;DHT22;4786;51.270;4.456;2022-09-28T00:14:52;10.40;99.90
9497;DHT22;4786;51.270;4.456;2022-09-28T00:17:18;10.40;99.90
9497;DHT22;4786;51.270;4.456;2022-09-28T00:19:46;10.20;99.90
9497;DHT22;4786;51.270;4.456;2022-09-28T00:22:12;10.10;99.90
9497;DHT22;4786;51.270;4.456;2022-09-28T00:24:38;10.10;99.90
9497;DHT22;4786;51.270;4.456;2022-09-28T00:27:05;10.10;99.90
9497;DHT22;4786;51.270;4.456;2022-09-28T00:29:33;10.00;99.90
9497;DHT22;4786;51.270;4.456;2022-09-28T00:32:05;10.00;99.90
9497;DHT22;4786;51.270;4.456;2022-09-28T00:34:36;10.00;99.90
9497;DHT22;4786;51.270;4.456;2022-09-28T00:37:04;10.00;99.90
9497;DHT22;4786;51.270;4.456;2022-09-28T00:39:31;10.00;99.90
9497;DHT22;4786;51.270;4.456;2022-09-28T00:41:57;10.00;99.90
9497;DHT22;4786;51.270;4.456;2022-09-28T00:45:08;10.00;99.90
9497;DHT22;4786;51.270;4.456;2022-09-28T00:50:28;10.20;99.90
9497;DHT22;4786;51.270;4.456;2022-09-28T00:53:04;10.20;99.90
9497;DHT22;4786;51.270;4.456;2022-09-28T00:57:59;10.30;99.90
9497;DHT22;4786;51.270;4.456;2022-09-28T01:00:28;10.40;99.90
9497;DHT22;4786;51.270;4.456;2022-09-28T01:02:53;10.40;99.90
9497;DHT22;4786;51.270;4.456;2022-09-28T01:05:20;10.40;99.90
9497;DHT22;4786;51.270;4.456;2022-09-28T01:07:47;10.50;99.90
9497;DHT22;4786;51.270;4.456;2022-09-28T01:10:13;10.50;99.90
9497;DHT22;4786;51.270;4.456;2022-09-28T01:12:39;10.50;99.90
9497;DHT22;4786;51.270;4.456;2022-09-28T01:15:05;10.50;99.90
9497;DHT22;4786;51.270;4.456;2022-09-28T01:20:39;10.50;99.90
9497;DHT22;4786;51.270;4.456;2022-09-28T01:28:30;10.50;99.90
9497;DHT22;4786;51.270;4.456;2022-09-28T01:33:36;10.50;99.90
9497;DHT22;4786;51.270;4.456;2022-09-28T01:36:33;10.40;99.90
9497;DHT22;4786;51.270;4.456;2022-09-28T01:39:15;10.50;99.90
9497;DHT22;4786;51.270;4.456;2022-09-28T01:41:45;10.50;99.90
9497;DHT22;4786;51.270;4.456;2022-09-28T01:44:15;10.60;99.90
9497;DHT22;4786;51.270;4.456;2022-09-28T01:46:45;10.50;99.90
9497;DHT22;4786;51.270;4.456;2022-09-28T01:49:22;10.50;99.90
9497;DHT22;4786;51.270;4.456;2022-09-28T01:54:42;10.50;99.90
9497;DHT22;4786;51.270;4.456;2022-09-28T01:57:29;10.50;99.90
9497;DHT22;4786;51.270;4.456;2022-09-28T02:00:15;10.40;99.90
9497;DHT22;4786;51.270;4.456;2022-09-28T02:02:51;10.50;99.90
9497;DHT22;4786;51.270;4.456;2022-09-28T02:05:50;10.50;99.90
9497;DHT22;4786;51.270;4.456;2022-09-28T02:08:24;10.50;99.90
9497;DHT22;4786;51.270;4.456;2022-09-28T02:11:16;10.50;99.90
9497;DHT22;4786;51.270;4.456;2022-09-28T02:16:44;10.50;99.90
9497;DHT22;4786;51.270;4.456;2022-09-28T02:19:15;10.50;99.90
9497;DHT22;4786;51.270;4.456;2022-09-28T02:21:48;10.50;99.90
9497;DHT22;4786;51.270;4.456;2022-09-28T02:27:14;10.40;99.90
9497;DHT22;4786;51.270;4.456;2022-09-28T02:29:42;10.30;99.90
9497;DHT22;4786;51.270;4.456;2022-09-28T02:32:08;10.30;99.90
9497;DHT22;4786;51.270;4.456;2022-09-28T02:34:34;10.30;99.90
9497;DHT22;4786;51.270;4.456;2022-09-28T02:37:00;10.30;99.90
9497;DHT22;4786;51.270;4.456;2022-09-28T02:39:26;10.20;99.90
9497;DHT22;4786;51.270;4.456;2022-09-28T02:42:13;10.20;99.90
9497;DHT22;4786;51.270;4.456;2022-09-28T02:55:51;10.10;99.90
9497;DHT22;4786;51.270;4.456;2022-09-28T03:06:21;10.10;99.90
9497;DHT22;4786;51.270;4.456;2022-09-28T03:11:41;10.20;99.90
9497;DHT22;4786;51.270;4.456;2022-09-28T03:14:10;10.20;99.90
9497;DHT22;4786;51.270;4.456;2022-09-28T03:16:36;10.10;99.90
9497;DHT22;4786;51.270;4.456;2022-09-28T03:19:02;10.10;99.90
9497;DHT22;4786;51.270;4.456;2022-09-28T03:21:28;10.10;99.90
9497;DHT22;4786;51.270;4.456;2022-09-28T03:23:54;10.00;99.90
9497;DHT22;4786;51.270;4.456;2022-09-28T03:26:20;10.00;99.90
9497;DHT22;4786;51.270;4.456;2022-09-28T03:28:45;10.00;99.90
9497;DHT22;4786;51.270;4.456;2022-09-28T03:31:11;10.00;99.90
9497;DHT22;4786;51.270;4.456;2022-09-28T03:33:37;10.00;99.90
9497;DHT22;4786;51.270;4.456;2022-09-28T03:36:03;10.00;99.90
9497;DHT22;4786;51.270;4.456;2022-09-28T03:38:30;10.00;99.90
9497;DHT22;4786;51.270;4.456;2022-09-28T03:40:58;10.00;99.90
9497;DHT22;4786;51.270;4.456;2022-09-28T03:43:26;9.90;99.90
9497;DHT22;4786;51.270;4.456;2022-09-28T03:48:21;9.90;99.90
9497;DHT22;4786;51.270;4.456;2022-09-28T03:50:47;9.90;99.90
9497;DHT22;4786;51.270;4.456;2022-09-28T03:53:13;9.90;99.90
9497;DHT22;4786;51.270;4.456;2022-09-28T03:55:39;9.90;99.90
9497;DHT22;4786;51.270;4.456;2022-09-28T03:58:05;9.80;99.90
9497;DHT22;4786;51.270;4.456;2022-09-28T04:00:31;9.80;99.90
9497;DHT22;4786;51.270;4.456;2022-09-28T04:02:57;9.70;99.90
9497;DHT22;4786;51.270;4.456;2022-09-28T04:05:22;9.70;99.90
9497;DHT22;4786;51.270;4.456;2022-09-28T04:07:48;9.70;99.90
9497;DHT22;4786;51.270;4.456;2022-09-28T04:10:14;9.60;99.90
9497;DHT22;4786;51.270;4.456;2022-09-28T04:12:40;9.60;99.90
9497;DHT22;4786;51.270;4.456;2022-09-28T04:15:07;9.60;99.90
9497;DHT22;4786;51.270;4.456;2022-09-28T04:17:32;9.60;99.90
9497;DHT22;4786;51.270;4.456;2022-09-28T04:19:58;9.60;99.90
9497;DHT22;4786;51.270;4.456;2022-09-28T04:22:24;9.60;99.90
9497;DHT22;4786;51.270;4.456;2022-09-28T04:24:50;9.60;99.90
9497;DHT22;4786;51.270;4.456;2022-09-28T04:27:16;9.50;99.90
9497;DHT22;4786;51.270;4.456;2022-09-28T04:30:00;9.50;99.90
9497;DHT22;4786;51.270;4.456;2022-09-28T04:32:26;9.50;99.90
9497;DHT22;4786;51.270;4.456;2022-09-28T04:34:52;9.50;99.90
9497;DHT22;4786;51.270;4.456;2022-09-28T04:37:18;9.50;99.90
9497;DHT22;4786;51.270;4.456;2022-09-28T04:39:44;9.50;99.90
9497;DHT22;4786;51.270;4.456;2022-09-28T04:42:09;9.40;99.90
9497;DHT22;4786;51.270;4.456;2022-09-28T04:44:36;9.30;99.90
9497;DHT22;4786;51.270;4.456;2022-09-28T04:47:02;9.30;99.90
9497;DHT22;4786;51.270;4.456;2022-09-28T04:49:27;9.20;99.90
9497;DHT22;4786;51.270;4.456;2022-09-28T04:51:53;9.10;99.90
9497;DHT22;4786;51.270;4.456;2022-09-28T04:54:19;9.10;99.90
9497;DHT22;4786;51.270;4.456;2022-09-28T04:56:45;9.10;99.90
9497;DHT22;4786;51.270;4.456;2022-09-28T04:59:11;9.00;99.90
9497;DHT22;4786;51.270;4.456;2022-09-28T05:01:37;9.00;99.90
9497;DHT22;4786;51.270;4.456;2022-09-28T05:04:03;9.00;99.90
9497;DHT22;4786;51.270;4.456;2022-09-28T05:06:29;9.00;99.90
9497;DHT22;4786;51.270;4.456;2022-09-28T05:08:55;9.00;99.90
9497;DHT22;4786;51.270;4.456;2022-09-28T05:11:24;9.00;99.90
9497;DHT22;4786;51.270;4.456;2022-09-28T05:13:50;9.00;99.90
9497;DHT22;4786;51.270;4.456;2022-09-28T05:16:16;9.00;99.90
9497;DHT22;4786;51.270;4.456;2022-09-28T05:18:42;8.90;99.90
9497;DHT22;4786;51.270;4.456;2022-09-28T05:21:11;8.90;99.90
9497;DHT22;4786;51.270;4.456;2022-09-28T05:23:38;8.90;99.90
9497;DHT22;4786;51.270;4.456;2022-09-28T05:26:05;8.90;99.90
9497;DHT22;4786;51.270;4.456;2022-09-28T05:28:32;8.90;99.90
9497;DHT22;4786;51.270;4.456;2022-09-28T05:31:02;8.90;99.90
9497;DHT22;4786;51.270;4.456;2022-09-28T05:33:30;8.90;99.90
9497;DHT22;4786;51.270;4.456;2022-09-28T05:35:56;8.90;99.90
9497;DHT22;4786;51.270;4.456;2022-09-28T05:38:23;8.90;99.90
9497;DHT22;4786;51.270;4.456;2022-09-28T05:40:48;8.90;99.90
9497;DHT22;4786;51.270;4.456;2022-09-28T05:43:14;8.80;99.90
9497;DHT22;4786;51.270;4.456;2022-09-28T05:45:40;8.90;99.90
9497;DHT22;4786;51.270;4.456;2022-09-28T05:48:06;8.90;99.90
9497;DHT22;4786;51.270;4.456;2022-09-28T05:50:33;8.80;99.90
9497;DHT22;4786;51.270;4.456;2022-09-28T05:53:05;8.80;99.90
9497;DHT22;4786;51.270;4.456;2022-09-28T05:55:32;8.80;99.90
9497;DHT22;4786;51.270;4.456;2022-09-28T05:58:02;8.80;99.90
9497;DHT22;4786;51.270;4.456;2022-09-28T06:00:30;8.80;99.90
9497;DHT22;4786;51.270;4.456;2022-09-28T06:03:02;8.80;99.90
9497;DHT22;4786;51.270;4.456;2022-09-28T06:05:28;8.80;99.90
9497;DHT22;4786;51.270;4.456;2022-09-28T06:07:55;8.80;99.90
9497;DHT22;4786;51.270;4.456;2022-09-28T06:10:23;8.80;99.90
9497;DHT22;4786;51.270;4.456;2022-09-28T06:12:58;8.80;99.90
9497;DHT22;4786;51.270;4.456;2022-09-28T06:15:25;8.90;99.90
9497;DHT22;4786;51.270;4.456;2022-09-28T06:18:12;8.90;99.90
9497;DHT22;4786;51.270;4.456;2022-09-28T06:20:41;8.90;99.90
9497;DHT22;4786;51.270;4.456;2022-09-28T06:23:08;9.00;99.90
9497;DHT22;4786;51.270;4.456;2022-09-28T06:25:34;9.00;99.90
9497;DHT22;4786;51.270;4.456;2022-09-28T06:28:05;9.10;99.90
9497;DHT22;4786;51.270;4.456;2022-09-28T06:30:33;9.20;99.90
9497;DHT22;4786;51.270;4.456;2022-09-28T06:33:01;9.20;99.90
9497;DHT22;4786;51.270;4.456;2022-09-28T06:35:29;9.20;99.90
9497;DHT22;4786;51.270;4.456;2022-09-28T06:37:55;9.20;99.90
9497;DHT22;4786;51.270;4.456;2022-09-28T06:40:22;9.30;99.90
9497;DHT22;4786;51.270;4.456;2022-09-28T06:43:01;9.30;99.90
9497;DHT22;4786;51.270;4.456;2022-09-28T06:45:29;9.30;99.90
9497;DHT22;4786;51.270;4.456;2022-09-28T06:48:01;9.30;99.90
9497;DHT22;4786;51.270;4.456;2022-09-28T06:50:40;9.40;99.90
9497;DHT22;4786;51.270;4.456;2022-09-28T06:53:09;9.50;99.90
9497;DHT22;4786;51.270;4.456;2022-09-28T06:55:39;9.60;99.90
9497;DHT22;4786;51.270;4.456;2022-09-28T06:58:09;9.70;99.90
9497;DHT22;4786;51.270;4.456;2022-09-28T07:00:37;9.70;99.90
9497;DHT22;4786;51.270;4.456;2022-09-28T07:03:12;9.90;99.90
9497;DHT22;4786;51.270;4.456;2022-09-28T07:05:47;10.00;99.90
9497;DHT22;4786;51.270;4.456;2022-09-28T07:08:14;10.20;99.90
9497;DHT22;4786;51.270;4.456;2022-09-28T07:10:45;10.40;99.90
9497;DHT22;4786;51.270;4.456;2022-09-28T07:13:13;10.40;99.90
9497;DHT22;4786;51.270;4.456;2022-09-28T07:15:39;10.50;99.90
9497;DHT22;4786;51.270;4.456;2022-09-28T07:18:06;10.50;99.90
9497;DHT22;4786;51.270;4.456;2022-09-28T07:20:34;10.50;99.90
9497;DHT22;4786;51.270;4.456;2022-09-28T07:23:01;10.50;99.90
9497;DHT22;4786;51.270;4.456;2022-09-28T07:25:29;10.50;99.90
9497;DHT22;4786;51.270;4.456;2022-09-28T07:27:57;10.60;99.90
9497;DHT22;4786;51.270;4.456;2022-09-28T07:30:25;10.60;99.90
9497;DHT22;4786;51.270;4.456;2022-09-28T07:32:52;10.80;99.90
9497;DHT22;4786;51.270;4.456;2022-09-28T07:35:18;10.90;99.90
9497;DHT22;4786;51.270;4.456;2022-09-28T07:37:45;10.90;99.90
9497;DHT22;4786;51.270;4.456;2022-09-28T07:40:11;10.90;99.90
9497;DHT22;4786;51.270;4.456;2022-09-28T07:42:55;10.90;99.90
9497;DHT22;4786;51.270;4.456;2022-09-28T07:45:21;10.90;99.90
9497;DHT22;4786;51.270;4.456;2022-09-28T07:47:54;10.90;99.90
9497;DHT22;4786;51.270;4.456;2022-09-28T07:50:20;10.90;99.90
9497;DHT22;4786;51.270;4.456;2022-09-28T07:52:46;10.90;99.90
9497;DHT22;4786;51.270;4.456;2022-09-28T07:55:13;11.00;99.90
9497;DHT22;4786;51.270;4.456;2022-09-28T07:57:38;11.10;99.90
9497;DHT22;4786;51.270;4.456;2022-09-28T08:00:05;11.00;99.90
9497;DHT22;4786;51.270;4.456;2022-09-28T08:02:33;11.10;99.90
9497;DHT22;4786;51.270;4.456;2022-09-28T08:05:00;11.20;99.90
9497;DHT22;4786;51.270;4.456;2022-09-28T08:07:25;11.40;99.90
9497;DHT22;4786;51.270;4.456;2022-09-28T08:09:51;11.50;99.90
9497;DHT22;4786;51.270;4.456;2022-09-28T08:12:17;11.70;99.90
9497;DHT22;4786;51.270;4.456;2022-09-28T08:14:47;11.80;99.90
9497;DHT22;4786;51.270;4.456;2022-09-28T08:17:13;11.90;99.90
9497;DHT22;4786;51.270;4.456;2022-09-28T08:19:40;12.00;99.90
9497;DHT22;4786;51.270;4.456;2022-09-28T08:22:24;12.10;99.90
9497;DHT22;4786;51.270;4.456;2022-09-28T08:24:50;12.00;99.90
9497;DHT22;4786;51.270;4.456;2022-09-28T08:27:16;12.00;99.90
9497;DHT22;4786;51.270;4.456;2022-09-28T08:29:42;12.00;99.90
9497;DHT22;4786;51.270;4.456;2022-09-28T08:32:09;12.00;99.90
9497;DHT22;4786;51.270;4.456;2022-09-28T08:34:38;12.10;99.90
9497;DHT22;4786;51.270;4.456;2022-09-28T08:37:05;12.30;99.90
9497;DHT22;4786;51.270;4.456;2022-09-28T08:39:31;12.50;99.90
9497;DHT22;4786;51.270;4.456;2022-09-28T08:42:32;12.60;99.90
9497;DHT22;4786;51.270;4.456;2022-09-28T08:45:07;12.60;99.90
9497;DHT22;4786;51.270;4.456;2022-09-28T08:47:55;12.50;99.90
9497;DHT22;4786;51.270;4.456;2022-09-28T08:51:03;12.60;99.90
9497;DHT22;4786;51.270;4.456;2022-09-28T08:56:03;12.70;99.90
9497;DHT22;4786;51.270;4.456;2022-09-28T08:58:38;12.80;99.90
9497;DHT22;4786;51.270;4.456;2022-09-28T09:01:07;12.90;99.90
9497;DHT22;4786;51.270;4.456;2022-09-28T09:03:41;13.20;99.90
9497;DHT22;4786;51.270;4.456;2022-09-28T09:07:14;13.50;99.90
9497;DHT22;4786;51.270;4.456;2022-09-28T09:17:57;14.20;99.90
9497;DHT22;4786;51.270;4.456;2022-09-28T09:22:57;14.20;99.90
9497;DHT22;4786;51.270;4.456;2022-09-28T09:34:05;15.00;99.90
9497;DHT22;4786;51.270;4.456;2022-09-28T09:42:24;15.80;99.90
9497;DHT22;4786;51.270;4.456;2022-09-28T09:47:46;15.80;99.90
9497;DHT22;4786;51.270;4.456;2022-09-28T09:50:33;15.90;99.90
9497;DHT22;4786;51.270;4.456;2022-09-28T09:55:54;16.00;99.90
9497;DHT22;4786;51.270;4.456;2022-09-28T09:58:29;16.00;99.90
9497;DHT22;4786;51.270;4.456;2022-09-28T10:01:04;16.10;99.90
9497;DHT22;4786;51.270;4.456;2022-09-28T10:03:33;16.20;99.90
9497;DHT22;4786;51.270;4.456;2022-09-28T10:06:14;16.20;99.90
9497;DHT22;4786;51.270;4.456;2022-09-28T10:08:44;16.30;99.90
9497;DHT22;4786;51.270;4.456;2022-09-28T10:11:21;16.40;99.90
9497;DHT22;4786;51.270;4.456;2022-09-28T10:13:50;16.60;99.90
9497;DHT22;4786;51.270;4.456;2022-09-28T10:16:16;16.60;99.90
9497;DHT22;4786;51.270;4.456;2022-09-28T10:18:43;16.50;99.90
9497;DHT22;4786;51.270;4.456;2022-09-28T10:21:13;16.30;99.90
9497;DHT22;4786;51.270;4.456;2022-09-28T10:23:40;16.10;99.90
9497;DHT22;4786;51.270;4.456;2022-09-28T10:26:23;16.00;99.90
9497;DHT22;4786;51.270;4.456;2022-09-28T10:28:58;15.80;99.90
9497;DHT22;4786;51.270;4.456;2022-09-28T10:31:41;15.70;99.90
9497;DHT22;4786;51.270;4.456;2022-09-28T10:34:11;15.70;99.90
9497;DHT22;4786;51.270;4.456;2022-09-28T10:39:29;16.00;99.90
9497;DHT22;4786;51.270;4.456;2022-09-28T10:41:58;16.20;99.90
9497;DHT22;4786;51.270;4.456;2022-09-28T10:44:25;16.20;99.90
9497;DHT22;4786;51.270;4.456;2022-09-28T10:46:57;16.20;99.90
9497;DHT22;4786;51.270;4.456;2022-09-28T10:49:24;16.40;99.90
9497;DHT22;4786;51.270;4.456;2022-09-28T10:51:52;16.60;99.90
9497;DHT22;4786;51.270;4.456;2022-09-28T10:54:30;16.70;99.90
9497;DHT22;4786;51.270;4.456;2022-09-28T10:56:57;16.70;99.90
9497;DHT22;4786;51.270;4.456;2022-09-28T10:59:29;16.60;99.90
9497;DHT22;4786;51.270;4.456;2022-09-28T11:04:52;16.80;99.90
9497;DHT22;4786;51.270;4.456;2022-09-28T11:07:25;16.70;99.90
9497;DHT22;4786;51.270;4.456;2022-09-28T11:09:53;16.60;99.90
9497;DHT22;4786;51.270;4.456;2022-09-28T11:12:32;16.30;99.90
9497;DHT22;4786;51.270;4.456;2022-09-28T11:15:05;16.20;99.90
9497;DHT22;4786;51.270;4.456;2022-09-28T11:17:38;16.10;99.90
9497;DHT22;4786;51.270;4.456;2022-09-28T11:25:39;16.40;99.90
9497;DHT22;4786;51.270;4.456;2022-09-28T11:28:21;16.50;99.90
9497;DHT22;4786;51.270;4.456;2022-09-28T11:30:50;16.40;99.90
9497;DHT22;4786;51.270;4.456;2022-09-28T11:36:02;16.10;99.90
9497;DHT22;4786;51.270;4.456;2022-09-28T11:38:30;16.10;99.90
9497;DHT22;4786;51.270;4.456;2022-09-28T11:41:22;16.20;99.90
9497;DHT22;4786;51.270;4.456;2022-09-28T11:47:08;16.30;99.90
9497;DHT22;4786;51.270;4.456;2022-09-28T11:49:49;16.20;99.90
9497;DHT22;4786;51.270;4.456;2022-09-28T11:52:27;16.00;99.90
9497;DHT22;4786;51.270;4.456;2022-09-28T11:55:16;16.00;99.90
9497;DHT22;4786;51.270;4.456;2022-09-28T11:57:47;16.00;99.90
9497;DHT22;4786;51.270;4.456;2022-09-28T12:00:19;15.90;99.90
9497;DHT22;4786;51.270;4.456;2022-09-28T12:05:37;15.90;99.90
9497;DHT22;4786;51.270;4.456;2022-09-28T12:08:17;15.80;99.90
9497;DHT22;4786;51.270;4.456;2022-09-28T12:10:50;15.80;99.90
9497;DHT22;4786;51.270;4.456;2022-09-28T12:13:22;15.70;99.90
9497;DHT22;4786;51.270;4.456;2022-09-28T12:16:05;15.50;99.90
9497;DHT22;4786;51.270;4.456;2022-09-28T12:21:48;15.50;99.90
9497;DHT22;4786;51.270;4.456;2022-09-28T12:24:25;15.60;99.90
9497;DHT22;4786;51.270;4.456;2022-09-28T12:27:15;16.00;99.90
9497;DHT22;4786;51.270;4.456;2022-09-28T12:30:00;16.10;99.90
9497;DHT22;4786;51.270;4.456;2022-09-28T12:32:41;16.00;99.90
9497;DHT22;4786;51.270;4.456;2022-09-28T12:35:13;15.90;99.90
9497;DHT22;4786;51.270;4.456;2022-09-28T12:46:32;15.70;99.90
9497;DHT22;4786;51.270;4.456;2022-09-28T12:51:51;15.70;99.90
9497;DHT22;4786;51.270;4.456;2022-09-28T13:00:16;15.60;99.90
9497;DHT22;4786;51.270;4.456;2022-09-28T13:03:18;15.40;99.90
9497;DHT22;4786;51.270;4.456;2022-09-28T13:09:05;15.30;99.90
9497;DHT22;4786;51.270;4.456;2022-09-28T13:11:52;15.20;99.90
9497;DHT22;4786;51.270;4.456;2022-09-28T13:17:48;15.20;99.90
9497;DHT22;4786;51.270;4.456;2022-09-28T13:23:29;15.30;99.90
9497;DHT22;4786;51.270;4.456;2022-09-28T13:28:50;15.40;99.90
9497;DHT22;4786;51.270;4.456;2022-09-28T13:31:21;15.30;99.90
9497;DHT22;4786;51.270;4.456;2022-09-28T13:33:49;15.20;99.90
9497;DHT22;4786;51.270;4.456;2022-09-28T13:38:57;15.20;99.90
9497;DHT22;4786;51.270;4.456;2022-09-28T13:41:31;15.30;99.90
9497;DHT22;4786;51.270;4.456;2022-09-28T13:44:10;15.40;99.90
9497;DHT22;4786;51.270;4.456;2022-09-28T13:49:59;15.30;99.90
9497;DHT22;4786;51.270;4.456;2022-09-28T13:58:02;15.40;99.90
9497;DHT22;4786;51.270;4.456;2022-09-28T14:00:37;15.40;99.90
9497;DHT22;4786;51.270;4.456;2022-09-28T14:14:49;15.10;99.90
9497;DHT22;4786;51.270;4.456;2022-09-28T14:19:58;15.00;99.90
9497;DHT22;4786;51.270;4.456;2022-09-28T14:22:51;15.00;99.90
9497;DHT22;4786;51.270;4.456;2022-09-28T14:25:34;15.00;99.90
9497;DHT22;4786;51.270;4.456;2022-09-28T14:28:39;15.00;99.90
9497;DHT22;4786;51.270;4.456;2022-09-28T14:31:19;14.80;99.90
9497;DHT22;4786;51.270;4.456;2022-09-28T14:33:54;14.80;99.90
9497;DHT22;4786;51.270;4.456;2022-09-28T14:36:25;14.80;99.90
9497;DHT22;4786;51.270;4.456;2022-09-28T14:39:26;14.80;99.90
9497;DHT22;4786;51.270;4.456;2022-09-28T14:42:15;14.80;99.90
9497;DHT22;4786;51.270;4.456;2022-09-28T14:50:27;14.80;99.90
9497;DHT22;4786;51.270;4.456;2022-09-28T14:52:54;14.70;99.90
9497;DHT22;4786;51.270;4.456;2022-09-28T14:55:53;14.80;99.90
9497;DHT22;4786;51.270;4.456;2022-09-28T14:58:28;14.80;99.90
9497;DHT22;4786;51.270;4.456;2022-09-28T15:01:01;14.80;99.90
9497;DHT22;4786;51.270;4.456;2022-09-28T15:03:30;14.80;99.90
9497;DHT22;4786;51.270;4.456;2022-09-28T15:05:57;14.80;99.90
9497;DHT22;4786;51.270;4.456;2022-09-28T15:08:35;14.70;99.90
9497;DHT22;4786;51.270;4.456;2022-09-28T15:11:01;14.60;99.90
9497;DHT22;4786;51.270;4.456;2022-09-28T15:13:28;14.60;99.90
9497;DHT22;4786;51.270;4.456;2022-09-28T15:16:11;14.60;99.90
9497;DHT22;4786;51.270;4.456;2022-09-28T15:18:51;14.60;99.90
9497;DHT22;4786;51.270;4.456;2022-09-28T15:21:20;14.50;99.90
9497;DHT22;4786;51.270;4.456;2022-09-28T15:23:46;14.50;99.90
9497;DHT22;4786;51.270;4.456;2022-09-28T15:26:24;14.50;99.90
9497;DHT22;4786;51.270;4.456;2022-09-28T15:28:52;14.40;99.90
9497;DHT22;4786;51.270;4.456;2022-09-28T15:31:20;14.30;99.90
9497;DHT22;4786;51.270;4.456;2022-09-28T15:33:47;14.30;99.90
9497;DHT22;4786;51.270;4.456;2022-09-28T15:36:35;14.30;99.90
9497;DHT22;4786;51.270;4.456;2022-09-28T15:39:08;14.20;99.90
9497;DHT22;4786;51.270;4.456;2022-09-28T15:41:37;14.20;99.90
9497;DHT22;4786;51.270;4.456;2022-09-28T15:46:40;14.10;99.90
9497;DHT22;4786;51.270;4.456;2022-09-28T15:49:22;14.10;99.90
9497;DHT22;4786;51.270;4.456;2022-09-28T15:51:52;14.10;99.90
9497;DHT22;4786;51.270;4.456;2022-09-28T15:54:26;14.00;99.90
9497;DHT22;4786;51.270;4.456;2022-09-28T15:56:55;14.00;99.90
9497;DHT22;4786;51.270;4.456;2022-09-28T15:59:33;14.00;99.90
9497;DHT22;4786;51.270;4.456;2022-09-28T16:02:14;13.90;99.90
9497;DHT22;4786;51.270;4.456;2022-09-28T16:12:43;13.80;99.90
9497;DHT22;4786;51.270;4.456;2022-09-28T16:15:26;13.80;99.90
9497;DHT22;4786;51.270;4.456;2022-09-28T16:17:56;13.70;99.90
9497;DHT22;4786;51.270;4.456;2022-09-28T16:20:36;13.70;99.90
9497;DHT22;4786;51.270;4.456;2022-09-28T16:36:17;13.60;99.90
9497;DHT22;4786;51.270;4.456;2022-09-28T16:38:46;13.60;99.90
9497;DHT22;4786;51.270;4.456;2022-09-28T16:41:18;13.50;99.90
9497;DHT22;4786;51.270;4.456;2022-09-28T16:43:45;13.50;99.90
9497;DHT22;4786;51.270;4.456;2022-09-28T16:46:15;13.40;99.90
9497;DHT22;4786;51.270;4.456;2022-09-28T16:48:42;13.40;99.90
9497;DHT22;4786;51.270;4.456;2022-09-28T16:51:17;13.40;99.90
9497;DHT22;4786;51.270;4.456;2022-09-28T16:53:44;13.30;99.90
9497;DHT22;4786;51.270;4.456;2022-09-28T16:56:39;13.30;99.90
9497;DHT22;4786;51.270;4.456;2022-09-28T16:59:05;13.30;99.90
9497;DHT22;4786;51.270;4.456;2022-09-28T17:01:34;13.30;99.90
9497;DHT22;4786;51.270;4.456;2022-09-28T17:04:06;13.30;99.90
9497;DHT22;4786;51.270;4.456;2022-09-28T17:06:32;13.30;99.90
9497;DHT22;4786;51.270;4.456;2022-09-28T17:08:58;13.30;99.90
9497;DHT22;4786;51.270;4.456;2022-09-28T17:11:24;13.20;99.90
9497;DHT22;4786;51.270;4.456;2022-09-28T17:13:50;13.20;99.90
9497;DHT22;4786;51.270;4.456;2022-09-28T17:16:18;13.20;99.90
9497;DHT22;4786;51.270;4.456;2022-09-28T17:18:45;13.30;99.90
9497;DHT22;4786;51.270;4.456;2022-09-28T17:21:14;13.20;99.90
9497;DHT22;4786;51.270;4.456;2022-09-28T17:23:41;13.20;99.90
9497;DHT22;4786;51.270;4.456;2022-09-28T17:26:07;13.10;99.90
9497;DHT22;4786;51.270;4.456;2022-09-28T17:28:39;13.00;99.90
9497;DHT22;4786;51.270;4.456;2022-09-28T17:31:06;12.90;99.90
9497;DHT22;4786;51.270;4.456;2022-09-28T17:33:36;12.80;99.90
9497;DHT22;4786;51.270;4.456;2022-09-28T17:36:03;12.80;99.90
9497;DHT22;4786;51.270;4.456;2022-09-28T17:38:29;12.70;99.90
9497;DHT22;4786;51.270;4.456;2022-09-28T17:40:56;12.70;99.90
9497;DHT22;4786;51.270;4.456;2022-09-28T17:43:22;12.60;99.90
9497;DHT22;4786;51.270;4.456;2022-09-28T17:45:49;12.60;99.90
9497;DHT22;4786;51.270;4.456;2022-09-28T17:48:17;12.60;99.90
9497;DHT22;4786;51.270;4.456;2022-09-28T17:50:44;12.50;99.90
9497;DHT22;4786;51.270;4.456;2022-09-28T17:53:12;12.50;99.90
9497;DHT22;4786;51.270;4.456;2022-09-28T17:55:38;12.50;99.90
9497;DHT22;4786;51.270;4.456;2022-09-28T18:00:41;12.50;99.90
9497;DHT22;4786;51.270;4.456;2022-09-28T18:03:13;12.50;99.90
9497;DHT22;4786;51.270;4.456;2022-09-28T18:05:39;12.40;99.90
9497;DHT22;4786;51.270;4.456;2022-09-28T18:08:05;12.30;99.90
9497;DHT22;4786;51.270;4.456;2022-09-28T18:10:31;12.30;99.90
9497;DHT22;4786;51.270;4.456;2022-09-28T18:12:58;12.30;99.90
9497;DHT22;4786;51.270;4.456;2022-09-28T18:15:23;12.20;99.90
9497;DHT22;4786;51.270;4.456;2022-09-28T18:17:50;12.20;99.90
9497;DHT22;4786;51.270;4.456;2022-09-28T18:20:16;12.20;99.90
9497;DHT22;4786;51.270;4.456;2022-09-28T18:22:41;12.10;99.90
9497;DHT22;4786;51.270;4.456;2022-09-28T18:25:08;12.00;99.90
9497;DHT22;4786;51.270;4.456;2022-09-28T18:27:34;12.00;99.90
9497;DHT22;4786;51.270;4.456;2022-09-28T18:30:03;12.00;99.90
9497;DHT22;4786;51.270;4.456;2022-09-28T18:32:29;11.90;99.90
9497;DHT22;4786;51.270;4.456;2022-09-28T18:34:55;11.90;99.90
9497;DHT22;4786;51.270;4.456;2022-09-28T18:37:21;12.00;99.90
9497;DHT22;4786;51.270;4.456;2022-09-28T18:39:47;11.90;99.90
9497;DHT22;4786;51.270;4.456;2022-09-28T18:42:13;11.90;99.90
9497;DHT22;4786;51.270;4.456;2022-09-28T18:44:39;11.80;99.90
9497;DHT22;4786;51.270;4.456;2022-09-28T18:47:05;11.80;99.90
9497;DHT22;4786;51.270;4.456;2022-09-28T18:49:31;11.70;99.90
9497;DHT22;4786;51.270;4.456;2022-09-28T18:51:58;11.70;99.90
9497;DHT22;4786;51.270;4.456;2022-09-28T18:54:25;11.70;99.90
9497;DHT22;4786;51.270;4.456;2022-09-28T18:56:55;11.60;99.90
9497;DHT22;4786;51.270;4.456;2022-09-28T18:59:21;11.60;99.90
9497;DHT22;4786;51.270;4.456;2022-09-28T19:01:47;11.50;99.90
9497;DHT22;4786;51.270;4.456;2022-09-28T19:04:13;11.40;99.90
9497;DHT22;4786;51.270;4.456;2022-09-28T19:06:41;11.30;99.90
9497;DHT22;4786;51.270;4.456;2022-09-28T19:09:07;11.40;99.90
9497;DHT22;4786;51.270;4.456;2022-09-28T19:11:34;11.30;99.90
9497;DHT22;4786;51.270;4.456;2022-09-28T19:14:01;11.30;99.90
9497;DHT22;4786;51.270;4.456;2022-09-28T19:16:29;11.20;99.90
9497;DHT22;4786;51.270;4.456;2022-09-28T19:18:56;11.30;99.90
9497;DHT22;4786;51.270;4.456;2022-09-28T19:21:22;11.20;99.90
9497;DHT22;4786;51.270;4.456;2022-09-28T19:23:48;11.10;99.90
9497;DHT22;4786;51.270;4.456;2022-09-28T19:26:17;11.10;99.90
9497;DHT22;4786;51.270;4.456;2022-09-28T19:28:43;11.10;99.90
9497;DHT22;4786;51.270;4.456;2022-09-28T19:31:10;11.00;99.90
9497;DHT22;4786;51.270;4.456;2022-09-28T19:33:37;10.90;99.90
9497;DHT22;4786;51.270;4.456;2022-09-28T19:36:05;10.90;99.90
9497;DHT22;4786;51.270;4.456;2022-09-28T19:38:33;10.90;99.90
9497;DHT22;4786;51.270;4.456;2022-09-28T19:40:59;10.80;99.90